Nearby METAR Reports

 

KFNL - Ft Collins/Lovel, Colorado, USA
Distance from station: E 23mi, 37km
Updated: Wed, 22-Jan-2020 2:56am MST
Few Clouds
Few Clouds
 Wind from calm
Wind: Calm
Temperature: 34°F , 1°C
Dew Point: 23°F , -5°C
Humidity: 65%
Barometer: 29.81 inHg , 1009.5 hPa
Clouds: Few Clouds
Visibility: 10 miles , 16 km
Cloud details: Few Clouds 8000 ft
2020/01/22 09:56 KFNL 220956Z AUTO 00000KT 10SM FEW080 01/M05 A2981 RMK AO2 SLP092 T00111050 FZRANO
KLMO - Longmont/Vbrand, Colorado, USA
Distance from station: SE 26mi, 41km
Updated: Wed, 22-Jan-2020 3:55am MST
Clear
Clear
 Wind from NNE
Wind: NNE 5 mph , 7 km/h
Temperature: 32°F , 0°C
Wind Chill: 27°F , -3°C
Dew Point: 23°F , -5°C
Humidity: 69%
Barometer: 29.82 inHg , 1009.8 hPa
Clouds: Clear
Visibility: 10 miles , 16 km
2020/01/22 10:55 KLMO 221055Z AUTO 03004KT 10SM CLR 00/M05 A2982 RMK AO2 T00011047
 
KBDU - Boulder Muni, Colorado, USA
Distance from station: SSE 32mi, 52km
Updated: Wed, 22-Jan-2020 3:30am MST
Clear
Clear
 Wind from WNW
Wind: WNW 6 mph , 9 km/h
Temperature: 43°F , 6°C
Wind Chill: 39°F , 4°C
Dew Point: 21°F , -6°C
Humidity: 42%
Barometer: 29.81 inHg , 1009.5 hPa
Clouds: Clear
Visibility: 10 miles , 16 km
2020/01/22 10:30 KBDU 221030Z AUTO 29005KT 10SM CLR 06/M06 A2981 RMK AO2
KEIK - Erie Muni, Colorado, USA
Distance from station: SE 38mi, 61km
Updated: Wed, 22-Jan-2020 3:41am MST
Clear
Clear
 Wind from calm
Wind: Calm
Temperature: 36°F , 2°C
Dew Point: 23°F , -5°C
Humidity: 60%
Barometer: 29.86 inHg , 1011.2 hPa
Clouds: Clear
Visibility: 10 miles , 16 km
2020/01/22 10:41 KEIK 221041Z AUTO 00000KT 10SM CLR 02/M05 A2986 RMK AO2 T00191054
 
KBJC - Broomfield/Jeffc, Colorado, USA
Distance from station: SSE 44mi, 70km
Updated: Wed, 22-Jan-2020 3:30am MST
Clear
Clear
 Wind from WNW
Wind: WNW 13 mph , 20 km/h
Temperature: 39°F , 4°C
Wind Chill: 31°F , -1°C
Dew Point: 23°F , -5°C
Humidity: 52%
Barometer: 29.82 inHg , 1009.8 hPa
Clouds: Clear
Visibility: 10 miles , 16 km
2020/01/22 10:30 KBJC 221030Z AUTO 30011KT 10SM CLR 04/M05 A2982 RMK AO2
KGXY - Greeley/Weld, Colorado, USA
Distance from station: E 44mi, 71km
Updated: Wed, 22-Jan-2020 2:56am MST
Few Clouds
Few Clouds
 Wind from SSW
Wind: SSW 5 mph , 7 km/h
Temperature: 34°F , 1°C
Wind Chill: 29°F , -2°C
Dew Point: 25°F , -4°C
Humidity: 70%
Barometer: 29.81 inHg , 1009.5 hPa
Clouds: Few Clouds
Visibility: 10 miles , 16 km
Cloud details: Few Clouds 12000 ft
2020/01/22 09:56 KGXY 220956Z AUTO 20004KT 10SM FEW120 01/M04 A2981 RMK AO2 SLP113 T00061044 FZRANO
 
K33V - Walden, Colorado, USA
Distance from station: WNW 48mi, 77km
Updated: Wed, 22-Jan-2020 3:15am MST
Partly cloudy
Partly cloudy
 Wind from SW
Wind: SW 7 mph , 11 km/h
Temperature: 23°F , -5°C
Wind Chill: 15°F , -9°C
Dew Point: 18°F , -8°C
Humidity: 80%
Barometer: 29.92 inHg , 1013.2 hPa
Clouds: Partly cloudy
Visibility: 10 miles , 16 km
Cloud details: Partly cloudy 4200 ft
2020/01/22 10:15 K33V 221015Z AUTO 22006KT 10SM SCT042 M05/M08 A2992 RMK AO1
K0CO - Berthoud Pass, Colorado, USA
Distance from station: SSW 49mi, 79km
Updated: Wed, 22-Jan-2020 3:30am MST
Overcast
Overcast
 Wind from NW
Wind: NW 37 mph , 59 km/h, Gust: 48 mph , 78 km/h
Temperature: 12°F , -11°C
Wind Chill: -11°F , -24°C
Dew Point: -2°F , -19°C
Humidity: 52%
Barometer: 29.84 inHg , 1010.5 hPa
Clouds: Overcast
Cloud details: Overcast 100 ft
2020/01/22 10:30 K0CO 221030Z AUTO 32032G42KT OVC001 M11/M19 A2984 RMK AO2 PWINO